createdAt,value
2019-03-03T00:01:08.253Z,5.11
2019-03-03T00:03:37.728Z,4.97
2019-03-03T00:06:07.126Z,4.97
2019-03-03T00:08:36.509Z,4.96
2019-03-03T00:11:05.886Z,4.92
2019-03-03T00:13:35.292Z,4.87
2019-03-03T00:16:04.789Z,4.73
2019-03-03T00:18:34.133Z,4.73
2019-03-03T00:21:03.554Z,4.68
2019-03-03T00:23:33.068Z,4.66
2019-03-03T00:26:02.415Z,4.66
2019-03-03T00:28:31.783Z,4.64
2019-03-03T00:31:01.350Z,4.60
2019-03-03T00:33:30.793Z,4.56
2019-03-03T00:36:00.198Z,4.54
2019-03-03T00:38:34.517Z,4.54
2019-03-03T00:41:20.920Z,4.54
2019-03-03T00:44:21.269Z,4.49
2019-03-03T00:47:08.270Z,4.51
2019-03-03T00:49:55.655Z,4.46
2019-03-03T00:52:53.119Z,4.43
2019-03-03T00:55:35.679Z,4.47
2019-03-03T00:58:29.854Z,4.39
2019-03-03T01:01:15.185Z,4.38
2019-03-03T01:04:03.463Z,4.30
2019-03-03T01:07:00.514Z,4.29
2019-03-03T01:09:38.950Z,4.23
2019-03-03T01:12:23.175Z,4.19
2019-03-03T01:15:06.236Z,4.15
2019-03-03T01:17:50.397Z,4.19
2019-03-03T01:20:50.842Z,4.16
2019-03-03T01:23:39.286Z,4.14
2019-03-03T01:26:08.673Z,4.17
2019-03-03T01:28:38.061Z,4.18
2019-03-03T01:31:07.435Z,4.22
2019-03-03T01:33:36.849Z,4.26
2019-03-03T01:36:06.344Z,4.25
2019-03-03T01:38:35.711Z,4.21
2019-03-03T01:41:06.333Z,4.19
2019-03-03T01:43:35.848Z,4.15
2019-03-03T01:46:05.262Z,4.10
2019-03-03T01:48:34.730Z,4.10
2019-03-03T01:51:04.124Z,4.12
2019-03-03T01:53:33.506Z,4.13
2019-03-03T01:56:02.881Z,4.11
2019-03-03T01:58:32.283Z,4.09
2019-03-03T02:01:01.702Z,4.00
2019-03-03T02:03:31.298Z,4.00
2019-03-03T02:06:00.724Z,4.00
2019-03-03T02:08:30.106Z,4.00
2019-03-03T02:10:59.584Z,3.99
2019-03-03T02:13:28.996Z,4.04
2019-03-03T02:15:58.450Z,4.06
2019-03-03T02:18:27.802Z,4.07
2019-03-03T02:20:57.157Z,4.06
2019-03-03T02:23:26.576Z,4.09
2019-03-03T02:25:55.962Z,4.09
2019-03-03T02:28:25.333Z,4.03
2019-03-03T02:30:54.719Z,4.05
2019-03-03T02:33:24.296Z,4.09
2019-03-03T02:35:53.626Z,4.11
2019-03-03T02:38:22.987Z,4.11
2019-03-03T02:40:52.345Z,4.10
2019-03-03T02:43:21.758Z,4.12
2019-03-03T02:45:51.217Z,4.17
2019-03-03T02:48:20.567Z,4.20
2019-03-03T02:50:49.969Z,4.22
2019-03-03T02:53:19.336Z,4.25
2019-03-03T02:55:48.703Z,4.29
2019-03-03T02:58:18.048Z,4.24
2019-03-03T03:00:55.028Z,4.23
2019-03-03T03:03:24.558Z,4.26
2019-03-03T03:06:11.979Z,4.30
2019-03-03T03:08:59.459Z,4.25
2019-03-03T03:11:45.964Z,4.27
2019-03-03T03:14:32.858Z,4.30
2019-03-03T03:17:20.179Z,4.28
2019-03-03T03:20:23.903Z,4.35
2019-03-03T03:23:00.156Z,4.44
2019-03-03T03:25:54.490Z,4.48
2019-03-03T03:28:33.483Z,4.40
2019-03-03T03:31:20.835Z,4.44
2019-03-03T03:34:18.211Z,4.44
2019-03-03T03:37:12.159Z,4.47
2019-03-03T03:39:59.144Z,4.36
2019-03-03T03:42:37.362Z,4.36
2019-03-03T03:45:33.475Z,4.24
2019-03-03T03:48:21.788Z,4.24
2019-03-03T03:51:25.485Z,4.17
2019-03-03T03:54:22.142Z,3.88
2019-03-03T03:57:00.896Z,3.51
2019-03-03T03:59:42.978Z,3.12
2019-03-03T04:02:23.965Z,2.73
2019-03-03T04:05:02.772Z,2.45
2019-03-03T04:07:54.432Z,2.45
2019-03-03T04:10:52.094Z,2.23
2019-03-03T04:13:44.618Z,1.99
2019-03-03T04:16:25.095Z,1.92
2019-03-03T04:19:10.393Z,2.00
2019-03-03T04:22:04.722Z,1.87
2019-03-03T04:24:58.910Z,1.71
2019-03-03T04:27:35.273Z,1.70
2019-03-03T04:30:23.675Z,1.79
2019-03-03T04:33:18.049Z,1.78
2019-03-03T04:36:02.383Z,1.71
2019-03-03T04:38:53.631Z,1.70
2019-03-03T04:41:39.008Z,1.67
2019-03-03T04:44:13.507Z,1.66
2019-03-03T04:46:48.223Z,1.64
2019-03-03T04:49:37.093Z,1.65
2019-03-03T04:52:24.119Z,1.73
2019-03-03T04:55:12.391Z,1.71
2019-03-03T04:57:53.520Z,1.77
2019-03-03T05:00:35.004Z,1.77
2019-03-03T05:03:26.300Z,1.85
2019-03-03T05:06:13.264Z,1.90
2019-03-03T05:08:50.927Z,2.03
2019-03-03T05:12:15.289Z,2.08
2019-03-03T05:14:44.742Z,2.13
2019-03-03T05:17:38.823Z,2.35
2019-03-03T05:20:08.825Z,2.33
2019-03-03T05:22:38.208Z,2.12
2019-03-03T05:25:07.890Z,2.03
2019-03-03T05:27:37.256Z,1.98
2019-03-03T05:30:07.421Z,2.01
2019-03-03T05:32:36.752Z,2.18
2019-03-03T05:35:06.304Z,2.17
2019-03-03T05:37:35.641Z,2.22
2019-03-03T05:40:08.978Z,2.06
2019-03-03T05:42:41.346Z,2.24
2019-03-03T05:45:10.800Z,2.47
2019-03-03T05:47:40.220Z,2.58
2019-03-03T05:50:09.590Z,2.45
2019-03-03T05:52:38.980Z,1.39
2019-03-03T05:55:08.359Z,2.53
2019-03-03T05:57:37.754Z,2.45
2019-03-03T06:00:07.369Z,2.48
2019-03-03T06:02:36.823Z,2.55
2019-03-03T06:05:06.628Z,2.62
2019-03-03T06:07:35.987Z,2.63
2019-03-03T06:10:06.362Z,2.53
2019-03-03T06:12:35.730Z,2.39
2019-03-03T06:15:05.671Z,2.44
2019-03-03T06:17:35.050Z,2.58
2019-03-03T06:20:04.962Z,2.63
2019-03-03T06:22:35.149Z,2.67
2019-03-03T06:25:04.953Z,2.80
2019-03-03T06:27:34.469Z,2.94
2019-03-03T06:30:05.460Z,3.05
2019-03-03T06:32:35.066Z,3.17
2019-03-03T06:35:04.881Z,3.28
2019-03-03T06:37:34.314Z,3.43
2019-03-03T06:40:03.854Z,3.36
2019-03-03T06:42:33.187Z,3.29
2019-03-03T06:45:02.557Z,3.22
2019-03-03T06:47:31.899Z,3.45
2019-03-03T06:50:01.330Z,3.56
2019-03-03T06:52:30.790Z,3.69
2019-03-03T06:55:00.240Z,3.69
2019-03-03T06:57:37.698Z,3.90
2019-03-03T07:00:12.207Z,3.90
2019-03-03T07:02:44.866Z,3.94
2019-03-03T07:05:14.335Z,3.96
2019-03-03T07:07:43.814Z,4.11
2019-03-03T07:10:14.438Z,4.11
2019-03-03T07:12:43.789Z,3.99
2019-03-03T07:15:15.002Z,4.36
2019-03-03T07:17:54.381Z,4.36
2019-03-03T07:21:07.647Z,4.50
2019-03-03T07:23:32.805Z,4.59
2019-03-03T07:26:02.174Z,4.59
2019-03-03T07:28:31.551Z,4.70
2019-03-03T07:31:00.919Z,4.75
2019-03-03T07:33:32.293Z,4.75
2019-03-03T07:36:01.653Z,4.93
2019-03-03T07:38:31.004Z,4.93
2019-03-03T07:41:00.378Z,4.91
2019-03-03T07:43:32.737Z,4.81
2019-03-03T07:46:02.195Z,4.71
2019-03-03T07:48:31.509Z,4.59
2019-03-03T07:51:00.854Z,4.58
2019-03-03T07:53:30.188Z,4.51
2019-03-03T07:56:06.316Z,4.49
2019-03-03T07:58:35.669Z,4.50
2019-03-03T08:01:05.123Z,4.60
2019-03-03T08:03:35.616Z,4.63
2019-03-03T08:06:04.902Z,4.58
2019-03-03T08:08:34.364Z,4.13
2019-03-03T08:11:03.837Z,4.92
2019-03-03T08:13:33.211Z,5.09
2019-03-03T08:16:02.619Z,5.20
2019-03-03T08:18:32.403Z,5.29
2019-03-03T08:21:01.770Z,5.27
2019-03-03T08:23:34.420Z,5.44
2019-03-03T08:26:04.062Z,5.56
2019-03-03T08:28:33.439Z,5.59
2019-03-03T08:31:02.773Z,5.81
2019-03-03T08:33:32.132Z,5.97
2019-03-03T08:36:02.896Z,6.30
2019-03-03T08:38:32.230Z,6.46
2019-03-03T08:41:01.624Z,6.61
2019-03-03T08:43:52.950Z,6.60
2019-03-03T08:46:41.055Z,6.62
2019-03-03T08:49:19.497Z,6.85
2019-03-03T08:52:20.173Z,6.98
2019-03-03T08:55:14.545Z,6.95
2019-03-03T08:58:05.859Z,7.17
2019-03-03T09:00:53.026Z,7.32
2019-03-03T09:03:40.294Z,7.53
2019-03-03T09:06:17.839Z,7.80
2019-03-03T09:09:06.120Z,7.85
2019-03-03T09:11:40.546Z,7.99
2019-03-03T09:14:25.228Z,8.09
2019-03-03T09:17:08.014Z,7.91
2019-03-03T09:19:55.279Z,7.76
2019-03-03T09:22:46.376Z,8.01
2019-03-03T09:25:33.476Z,7.83
2019-03-03T09:28:21.752Z,7.70
2019-03-03T09:31:06.952Z,7.76
2019-03-03T09:34:04.106Z,7.91
2019-03-03T09:36:55.314Z,7.90
2019-03-03T09:39:41.659Z,7.78
2019-03-03T09:42:32.972Z,7.85
2019-03-03T09:45:18.959Z,8.18
2019-03-03T09:47:55.595Z,3.24
2019-03-03T09:50:50.130Z,8.36
2019-03-03T09:53:38.094Z,8.38
2019-03-03T09:56:38.706Z,8.29
2019-03-03T09:59:28.746Z,8.37
2019-03-03T10:02:32.169Z,6.00
2019-03-03T10:05:26.254Z,8.55
2019-03-03T10:08:11.445Z,8.53
2019-03-03T10:11:11.990Z,8.59
2019-03-03T10:14:13.534Z,8.65
2019-03-03T10:17:14.121Z,8.52
2019-03-03T10:19:52.508Z,8.62
2019-03-03T10:22:51.673Z,8.89
2019-03-03T10:25:47.032Z,9.13
2019-03-03T10:28:34.439Z,9.16
2019-03-03T10:31:22.812Z,9.05
2019-03-03T10:34:25.809Z,9.19
2019-03-03T10:37:14.570Z,9.24
2019-03-03T10:40:05.971Z,8.91
2019-03-03T10:42:57.534Z,8.58
2019-03-03T10:45:52.675Z,8.55
2019-03-03T10:48:36.169Z,8.38
2019-03-03T10:51:23.234Z,8.44
2019-03-03T10:54:23.753Z,8.23
2019-03-03T10:57:24.704Z,8.14
2019-03-03T11:00:02.719Z,8.21
2019-03-03T11:02:58.648Z,8.22
2019-03-03T11:06:03.730Z,8.12
2019-03-03T11:08:42.929Z,7.98
2019-03-03T11:11:43.534Z,7.89
2019-03-03T11:14:50.313Z,7.83
2019-03-03T11:17:41.375Z,7.84
2019-03-03T11:20:25.340Z,7.73
2019-03-03T11:23:20.083Z,7.59
2019-03-03T11:26:16.308Z,7.56
2019-03-03T11:29:24.805Z,7.57
2019-03-03T11:32:31.918Z,7.67
2019-03-03T11:35:19.115Z,7.88
2019-03-03T11:38:14.710Z,7.99
2019-03-03T11:41:20.953Z,7.88
2019-03-03T11:44:02.449Z,7.76
2019-03-03T11:46:59.836Z,7.80
2019-03-03T11:49:53.523Z,7.79
2019-03-03T11:52:37.833Z,7.46
2019-03-03T11:55:29.089Z,7.98
2019-03-03T11:58:17.494Z,7.95
2019-03-03T12:01:04.763Z,7.87
2019-03-03T12:03:58.258Z,7.87
2019-03-03T12:06:46.896Z,7.98
2019-03-03T12:09:29.732Z,7.98
2019-03-03T12:12:16.928Z,8.00
2019-03-03T12:14:57.016Z,8.11
2019-03-03T12:17:45.298Z,8.33
2019-03-03T12:20:23.941Z,8.60
2019-03-03T12:23:10.808Z,8.52
2019-03-03T12:25:46.712Z,8.33
2019-03-03T12:28:33.985Z,8.20
2019-03-03T12:31:12.863Z,8.36
2019-03-03T12:34:01.101Z,8.46
2019-03-03T12:37:07.736Z,7.46
2019-03-03T12:39:53.756Z,8.47
2019-03-03T12:42:39.661Z,8.20
2019-03-03T12:45:26.681Z,8.30
2019-03-03T12:48:17.713Z,8.41
2019-03-03T12:51:44.513Z,8.44
2019-03-03T12:54:32.056Z,8.32
2019-03-03T12:57:18.226Z,8.42
2019-03-03T13:00:11.452Z,8.53
2019-03-03T13:03:09.389Z,8.62
2019-03-03T13:05:56.467Z,9.05
2019-03-03T13:08:41.390Z,9.64
2019-03-03T13:11:32.588Z,9.81
2019-03-03T13:14:33.297Z,9.77
2019-03-03T13:17:11.127Z,9.67
2019-03-03T13:20:05.403Z,9.61
2019-03-03T13:22:51.129Z,9.67
2019-03-03T13:25:35.522Z,9.46
2019-03-03T13:28:26.649Z,9.43
2019-03-03T13:31:13.804Z,9.84
2019-03-03T13:34:08.377Z,9.91
2019-03-03T13:37:11.740Z,9.80
2019-03-03T13:40:14.804Z,9.74
2019-03-03T13:42:56.699Z,9.86
2019-03-03T13:45:28.859Z,9.72
2019-03-03T13:47:58.317Z,9.55
2019-03-03T13:50:27.654Z,9.59
2019-03-03T13:52:57.029Z,7.11
2019-03-03T13:55:26.465Z,9.88
2019-03-03T13:57:55.922Z,10.00
2019-03-03T14:00:25.741Z,10.33
2019-03-03T14:02:55.130Z,10.23
2019-03-03T14:05:24.986Z,10.04
2019-03-03T14:07:54.461Z,9.95
2019-03-03T14:10:23.907Z,10.01
2019-03-03T14:12:53.260Z,9.93
2019-03-03T14:15:22.641Z,9.86
2019-03-03T14:17:52.004Z,9.55
2019-03-03T14:20:22.758Z,9.34
2019-03-03T14:22:53.664Z,9.25
2019-03-03T14:25:23.152Z,9.20
2019-03-03T14:27:52.567Z,9.06
2019-03-03T14:30:23.637Z,9.03
2019-03-03T14:32:52.959Z,8.92
2019-03-03T14:35:25.195Z,8.85
2019-03-03T14:37:54.529Z,8.83
2019-03-03T14:40:23.867Z,8.79
2019-03-03T14:42:53.245Z,8.83
2019-03-03T14:45:22.894Z,8.79
2019-03-03T14:47:52.227Z,8.82
2019-03-03T14:50:21.822Z,8.78
2019-03-03T14:52:51.361Z,8.78
2019-03-03T14:55:20.777Z,8.83
2019-03-03T14:57:50.270Z,8.84
2019-03-03T15:00:31.216Z,8.81
2019-03-03T15:03:02.381Z,8.80
2019-03-03T15:05:31.792Z,8.82
2019-03-03T15:08:01.149Z,8.81
2019-03-03T15:10:30.511Z,8.75
2019-03-03T15:13:00.211Z,8.65
2019-03-03T15:15:30.415Z,8.65
2019-03-03T15:17:59.761Z,8.60
2019-03-03T15:20:29.093Z,8.63
2019-03-03T15:22:58.594Z,8.69
2019-03-03T15:25:28.173Z,8.69
2019-03-03T15:27:57.525Z,8.61
2019-03-03T15:30:26.854Z,8.63
2019-03-03T15:32:56.221Z,8.64
2019-03-03T15:35:27.444Z,8.63
2019-03-03T15:37:56.991Z,8.64
2019-03-03T15:40:26.375Z,8.62
2019-03-03T15:42:55.836Z,8.61
2019-03-03T15:45:25.387Z,8.52
2019-03-03T15:47:54.719Z,8.74
2019-03-03T15:50:24.205Z,9.09
2019-03-03T15:52:53.597Z,8.81
2019-03-03T15:55:23.031Z,8.65
2019-03-03T15:57:52.642Z,8.59
2019-03-03T16:00:24.205Z,8.56
2019-03-03T16:02:53.645Z,8.50
2019-03-03T16:05:23.038Z,8.43
2019-03-03T16:07:52.878Z,8.39
2019-03-03T16:10:22.693Z,8.32
2019-03-03T16:12:52.028Z,8.24
2019-03-03T16:15:30.737Z,8.18
2019-03-03T16:18:02.456Z,8.18
2019-03-03T16:20:31.808Z,8.15
2019-03-03T16:23:01.159Z,8.15
2019-03-03T16:25:34.630Z,8.09
2019-03-03T16:28:04.007Z,8.08
2019-03-03T16:30:33.454Z,8.08
2019-03-03T16:33:02.841Z,8.05
2019-03-03T16:35:32.187Z,7.95
2019-03-03T16:38:01.569Z,7.90
2019-03-03T16:40:39.289Z,7.90
2019-03-03T16:43:02.167Z,7.89
2019-03-03T16:45:31.529Z,7.90
2019-03-03T16:48:00.915Z,7.91
2019-03-03T16:50:30.276Z,7.92
2019-03-03T16:52:59.626Z,7.88
2019-03-03T16:55:28.988Z,7.84
2019-03-03T16:57:58.390Z,7.82
2019-03-03T17:00:29.635Z,7.76
2019-03-03T17:02:59.016Z,7.74
2019-03-03T17:05:28.387Z,7.67
2019-03-03T17:07:57.721Z,7.67
2019-03-03T17:10:27.244Z,7.68
2019-03-03T17:12:56.597Z,7.67
2019-03-03T17:15:26.025Z,7.71
2019-03-03T17:17:55.404Z,7.70
2019-03-03T17:20:24.747Z,7.69
2019-03-03T17:22:54.111Z,7.72
2019-03-03T17:25:24.064Z,7.70
2019-03-03T17:27:53.434Z,7.68
2019-03-03T17:30:23.342Z,7.69
2019-03-03T17:32:53.207Z,7.69
2019-03-03T17:35:22.579Z,7.68
2019-03-03T17:37:52.183Z,7.70
2019-03-03T17:40:22.444Z,7.71
2019-03-03T17:42:52.942Z,7.73
2019-03-03T17:45:22.589Z,7.70
2019-03-03T17:47:52.363Z,7.67
2019-03-03T17:50:22.137Z,7.69
2019-03-03T17:52:53.151Z,7.72
2019-03-03T17:55:22.584Z,7.69
2019-03-03T17:57:52.235Z,7.72
2019-03-03T18:00:24.051Z,7.64
2019-03-03T18:02:53.939Z,7.61
2019-03-03T18:05:23.338Z,7.65
2019-03-03T18:07:52.841Z,7.62
2019-03-03T18:10:22.271Z,7.60
2019-03-03T18:12:51.944Z,7.64
2019-03-03T18:15:21.413Z,7.65
2019-03-03T18:18:22.071Z,7.61
2019-03-03T18:20:51.646Z,7.64
2019-03-03T18:24:14.535Z,7.57
2019-03-03T18:26:43.973Z,7.47
2019-03-03T18:29:13.463Z,7.41
2019-03-03T18:31:42.898Z,7.33
2019-03-03T18:34:12.271Z,7.24
2019-03-03T18:36:41.692Z,7.21
2019-03-03T18:39:11.220Z,7.17
2019-03-03T18:41:40.643Z,7.11
2019-03-03T18:44:10.379Z,7.14
2019-03-03T18:46:41.634Z,7.12
2019-03-03T18:49:11.173Z,7.08
2019-03-03T18:51:43.115Z,7.06
2019-03-03T18:54:12.474Z,7.05
2019-03-03T18:56:41.889Z,7.01
2019-03-03T18:59:11.389Z,6.94
2019-03-03T19:01:40.744Z,6.97
2019-03-03T19:04:10.437Z,6.98
2019-03-03T19:06:39.786Z,6.95
2019-03-03T19:09:11.790Z,6.91
2019-03-03T19:11:41.166Z,6.85
2019-03-03T19:14:10.508Z,6.80
2019-03-03T19:16:40.870Z,6.83
2019-03-03T19:19:10.225Z,6.79
2019-03-03T19:21:39.593Z,6.78
2019-03-03T19:24:08.941Z,6.74
2019-03-03T19:26:38.295Z,6.69
2019-03-03T19:29:07.717Z,6.66
2019-03-03T19:31:37.115Z,6.64
2019-03-03T19:34:08.900Z,6.61
2019-03-03T19:36:38.359Z,6.62
2019-03-03T19:39:07.866Z,6.65
2019-03-03T19:41:37.269Z,6.62
2019-03-03T19:44:06.658Z,6.60
2019-03-03T19:46:36.305Z,6.62
2019-03-03T19:49:05.915Z,6.64
2019-03-03T19:51:35.349Z,6.62
2019-03-03T19:54:04.878Z,6.59
2019-03-03T19:56:34.218Z,6.62
2019-03-03T19:59:03.577Z,6.64
2019-03-03T20:01:32.926Z,6.62
2019-03-03T20:04:02.257Z,6.62
2019-03-03T20:06:31.605Z,6.62
2019-03-03T20:09:01.007Z,6.64
2019-03-03T20:11:30.378Z,6.69
2019-03-03T20:14:02.035Z,6.78
2019-03-03T20:16:31.507Z,6.85
2019-03-03T20:19:00.870Z,6.77
2019-03-03T20:21:30.270Z,6.83
2019-03-03T20:23:59.679Z,6.81
2019-03-03T20:26:29.040Z,6.70
2019-03-03T20:28:58.397Z,6.56
2019-03-03T20:31:28.567Z,6.44
2019-03-03T20:33:58.702Z,6.42
2019-03-03T20:36:28.219Z,6.35
2019-03-03T20:38:57.581Z,6.52
2019-03-03T20:41:26.915Z,6.39
2019-03-03T20:43:56.272Z,5.86
2019-03-03T20:46:25.943Z,5.75
2019-03-03T20:48:55.279Z,5.58
2019-03-03T20:51:24.630Z,5.28
2019-03-03T20:53:53.998Z,4.92
2019-03-03T20:56:23.333Z,4.92
2019-03-03T20:58:54.107Z,4.85
2019-03-03T21:01:26.442Z,4.86
2019-03-03T21:03:55.810Z,4.84
2019-03-03T21:06:25.181Z,4.76
2019-03-03T21:08:54.586Z,4.69
2019-03-03T21:11:24.069Z,4.69
2019-03-03T21:13:53.492Z,4.51
2019-03-03T21:16:22.891Z,4.51
2019-03-03T21:18:52.295Z,4.53
2019-03-03T21:21:21.655Z,4.52
2019-03-03T21:23:51.217Z,4.36
2019-03-03T21:26:20.606Z,4.08
2019-03-03T21:28:49.995Z,4.33
2019-03-03T21:31:19.482Z,4.34
2019-03-03T21:33:51.987Z,4.42
2019-03-03T21:36:21.383Z,4.33
2019-03-03T21:38:50.874Z,4.25
2019-03-03T21:41:20.951Z,4.19
2019-03-03T21:43:50.387Z,4.15
2019-03-03T21:46:19.744Z,4.11
2019-03-03T21:48:49.728Z,4.07
2019-03-03T21:51:20.735Z,4.04
2019-03-03T21:53:50.204Z,4.03
2019-03-03T21:56:20.302Z,3.96
2019-03-03T21:58:52.811Z,3.88
2019-03-03T22:01:22.233Z,3.93
2019-03-03T22:03:51.599Z,4.01
2019-03-03T22:06:21.015Z,3.90
2019-03-03T22:08:50.497Z,3.83
2019-03-03T22:11:19.873Z,3.82
2019-03-03T22:13:49.334Z,3.89
2019-03-03T22:16:18.705Z,3.83
2019-03-03T22:18:48.159Z,3.67
2019-03-03T22:21:17.564Z,3.42
2019-03-03T22:23:46.972Z,3.42
2019-03-03T22:26:16.445Z,3.39
2019-03-03T22:28:45.898Z,3.36
2019-03-03T22:31:15.381Z,3.32
2019-03-03T22:33:44.950Z,3.42
2019-03-03T22:36:14.355Z,3.47
2019-03-03T22:38:43.955Z,3.61
2019-03-03T22:41:13.456Z,3.57
2019-03-03T22:43:42.992Z,3.31
2019-03-03T22:46:12.353Z,3.31
2019-03-03T22:48:41.762Z,3.39
2019-03-03T22:51:11.195Z,3.25
2019-03-03T22:53:40.607Z,3.25
2019-03-03T22:56:10.028Z,3.20
2019-03-03T22:58:39.532Z,3.18
2019-03-03T23:01:22.758Z,3.18
2019-03-03T23:04:13.929Z,3.02
2019-03-03T23:07:01.024Z,3.02
2019-03-03T23:10:18.762Z,2.84
2019-03-03T23:13:11.855Z,2.90
2019-03-03T23:16:24.159Z,2.95
2019-03-03T23:19:12.538Z,2.86
2019-03-03T23:22:08.790Z,2.77
2019-03-03T23:25:37.266Z,2.61
2019-03-03T23:28:09.170Z,2.46
2019-03-03T23:30:38.668Z,2.42
2019-03-03T23:33:07.992Z,2.48
2019-03-03T23:35:37.403Z,2.54
2019-03-03T23:38:06.745Z,2.55
2019-03-03T23:40:36.133Z,2.31
2019-03-03T23:43:05.563Z,2.42
2019-03-03T23:45:34.992Z,2.42
2019-03-03T23:48:04.566Z,2.28
2019-03-03T23:50:33.919Z,2.25
2019-03-03T23:53:03.322Z,2.17
2019-03-03T23:55:32.731Z,2.19
2019-03-03T23:58:02.119Z,2.20
